Time;durP1;ratioP1;P1;durP2;ratioP2;P2;SDS_P1;SDS_P2;PMS_P1;PMS_P2;Temp;Humidity;BMP_temperature;BMP_pressure;BME280_temperature;BME280_humidity;BME280_pressure;Samples;Min_cycle;Max_cycle;Signal;HPM_P1;HPM_P2
2021/10/20 00:02:03;;;;;;;4.63;3.00;;;12.50;99.90;;;;;;5071446;28;20660;-69
2021/10/20 00:04:30;;;;;;;3.85;3.35;;;12.50;99.90;;;;;;5069653;28;20686;-70
2021/10/20 00:06:58;;;;;;;3.72;3.30;;;12.60;99.90;;;;;;5070874;28;20204;-70
2021/10/20 00:09:25;;;;;;;4.38;3.70;;;12.60;99.90;;;;;;5071834;28;20211;-69
2021/10/20 00:11:52;;;;;;;5.25;3.20;;;12.60;99.90;;;;;;5068952;28;20200;-70
2021/10/20 00:14:19;;;;;;;3.83;3.50;;;12.60;99.90;;;;;;5071307;28;20200;-70
2021/10/20 00:16:47;;;;;;;4.90;3.35;;;12.60;99.90;;;;;;5071060;28;20719;-70
2021/10/20 00:19:14;;;;;;;3.65;3.03;;;12.50;99.90;;;;;;5072073;28;20582;-69
2021/10/20 00:21:41;;;;;;;3.50;3.15;;;12.50;99.90;;;;;;5071734;28;20212;-69
2021/10/20 00:24:08;;;;;;;4.22;3.42;;;12.50;99.90;;;;;;5072516;28;20479;-69
2021/10/20 00:26:34;;;;;;;4.55;3.20;;;12.50;99.90;;;;;;5071859;28;20229;-69
2021/10/20 00:29:01;;;;;;;4.57;3.63;;;12.60;99.90;;;;;;5071860;28;20205;-70
2021/10/20 00:31:28;;;;;;;4.03;3.50;;;12.60;99.90;;;;;;5071836;28;20197;-70
2021/10/20 00:33:56;;;;;;;3.80;3.30;;;12.60;99.90;;;;;;5071546;28;20208;-69
2021/10/20 00:36:23;;;;;;;4.40;3.40;;;12.60;99.90;;;;;;5070985;28;20228;-69
2021/10/20 00:38:49;;;;;;;4.28;3.50;;;12.60;99.90;;;;;;5071483;28;20208;-69
2021/10/20 00:41:16;;;;;;;3.50;3.20;;;12.60;99.90;;;;;;5070853;28;20247;-70
2021/10/20 00:43:43;;;;;;;3.33;3.00;;;12.60;99.90;;;;;;5070641;28;20200;-69
2021/10/20 00:46:10;;;;;;;4.03;3.10;;;12.60;99.90;;;;;;5070450;28;20220;-69
2021/10/20 00:48:37;;;;;;;4.68;3.30;;;12.60;99.90;;;;;;5071098;28;20208;-69
2021/10/20 00:51:05;;;;;;;3.38;3.08;;;12.60;99.90;;;;;;5071086;28;20206;-69
2021/10/20 00:53:31;;;;;;;3.60;3.00;;;12.60;99.90;;;;;;5070585;28;20580;-69
2021/10/20 00:55:58;;;;;;;3.97;3.05;;;12.60;99.90;;;;;;5071000;28;20243;-70
2021/10/20 00:58:25;;;;;;;3.65;3.30;;;12.60;99.90;;;;;;5071151;28;20204;-70
2021/10/20 01:03:19;;;;;;;4.85;3.15;;;12.60;99.90;;;;;;5047313;28;20232;-71
2021/10/20 01:05:46;;;;;;;3.75;3.10;;;12.70;99.90;;;;;;5050660;28;20225;-72
2021/10/20 01:08:14;;;;;;;4.60;3.30;;;12.70;99.90;;;;;;5050538;28;20205;-72
2021/10/20 01:10:41;;;;;;;5.53;2.78;;;12.80;99.90;;;;;;5049193;28;20205;-73
2021/10/20 01:13:08;;;;;;;3.25;2.95;;;12.80;99.90;;;;;;5049463;28;20696;-72
2021/10/20 01:15:35;;;;;;;3.05;2.80;;;12.90;99.90;;;;;;5049119;28;20224;-72
2021/10/20 01:18:03;;;;;;;3.45;3.15;;;12.90;99.90;;;;;;5048877;28;20193;-72
2021/10/20 01:20:32;;;;;;;3.90;3.00;;;12.90;99.90;;;;;;5049114;28;20221;-73
2021/10/20 01:23:01;;;;;;;3.75;2.78;;;13.00;99.90;;;;;;5048845;28;20604;-72
2021/10/20 01:25:28;;;;;;;3.47;3.17;;;13.00;99.90;;;;;;5048741;28;20228;-72
2021/10/20 01:27:56;;;;;;;3.00;2.63;;;13.00;99.90;;;;;;5048796;28;20216;-71
2021/10/20 01:30:23;;;;;;;3.50;3.00;;;13.10;99.90;;;;;;5048409;28;20201;-72
2021/10/20 01:32:50;;;;;;;3.50;3.20;;;13.10;99.90;;;;;;5047430;28;20455;-73
2021/10/20 01:35:16;;;;;;;3.08;2.70;;;13.10;99.90;;;;;;5046787;28;20584;-72
2021/10/20 01:37:43;;;;;;;3.95;3.65;;;13.10;99.90;;;;;;5048895;28;20207;-72
2021/10/20 01:40:12;;;;;;;4.25;3.17;;;13.10;99.90;;;;;;5050318;28;20220;-72
2021/10/20 01:42:40;;;;;;;3.70;3.05;;;13.10;99.90;;;;;;5050432;28;20212;-72
2021/10/20 01:45:09;;;;;;;3.55;3.15;;;13.10;99.90;;;;;;5050221;28;20225;-72
2021/10/20 01:47:36;;;;;;;3.28;2.83;;;13.00;99.90;;;;;;5049870;28;20239;-72
2021/10/20 01:50:04;;;;;;;3.20;2.90;;;13.00;99.90;;;;;;5050518;28;20239;-72
2021/10/20 01:52:31;;;;;;;3.45;3.08;;;13.00;99.90;;;;;;5050080;28;20664;-72
2021/10/20 01:54:58;;;;;;;3.95;3.05;;;12.80;99.90;;;;;;5050328;28;20221;-72
2021/10/20 01:57:26;;;;;;;3.50;3.03;;;12.80;99.90;;;;;;5049758;28;20204;-72
2021/10/20 01:59:53;;;;;;;3.80;2.95;;;12.80;99.90;;;;;;5050213;28;20204;-71
2021/10/20 02:02:20;;;;;;;3.50;3.08;;;12.70;99.90;;;;;;5050058;28;20212;-72
2021/10/20 02:04:47;;;;;;;3.38;3.08;;;12.70;99.90;;;;;;5050111;28;20220;-72
2021/10/20 02:07:14;;;;;;;3.22;2.80;;;12.60;99.90;;;;;;5049557;28;20212;-72
2021/10/20 02:09:40;;;;;;;3.67;2.80;;;12.50;99.90;;;;;;5050099;28;20212;-72
2021/10/20 02:12:08;;;;;;;3.10;2.80;;;12.50;99.90;;;;;;5050221;28;20831;-72
2021/10/20 02:14:37;;;;;;;3.15;2.85;;;12.50;99.90;;;;;;5050086;28;20197;-72
2021/10/20 02:17:05;;;;;;;5.32;3.00;;;12.50;99.90;;;;;;5049684;28;20612;-71
2021/10/20 02:19:31;;;;;;;3.58;3.17;;;12.60;99.90;;;;;;5050326;28;20208;-72
2021/10/20 02:21:59;;;;;;;3.70;3.10;;;12.60;99.90;;;;;;5050963;28;20225;-72
2021/10/20 02:24:26;;;;;;;3.28;2.47;;;12.60;99.90;;;;;;5054100;28;20524;-72
2021/10/20 02:26:53;;;;;;;4.28;2.97;;;12.50;99.90;;;;;;5053612;28;20201;-72
2021/10/20 02:29:20;;;;;;;3.42;2.70;;;12.50;99.90;;;;;;5053886;28;20205;-72
2021/10/20 02:31:48;;;;;;;2.60;2.40;;;12.50;99.90;;;;;;5054039;28;20348;-72
2021/10/20 02:34:16;;;;;;;3.20;2.65;;;12.60;99.90;;;;;;5053908;28;20691;-72
2021/10/20 02:36:43;;;;;;;2.85;2.55;;;12.60;99.90;;;;;;5053280;28;20228;-72
2021/10/20 02:39:11;;;;;;;2.70;2.50;;;12.60;99.90;;;;;;5053564;28;20205;-72
2021/10/20 02:41:37;;;;;;;2.95;2.67;;;12.60;99.90;;;;;;5054019;28;20589;-72
2021/10/20 02:44:05;;;;;;;3.65;2.90;;;12.60;99.90;;;;;;5053508;28;20204;-72
2021/10/20 02:46:32;;;;;;;4.35;2.75;;;12.60;99.90;;;;;;5053184;28;20897;-72
2021/10/20 02:49:00;;;;;;;3.63;2.63;;;12.60;99.90;;;;;;5053571;28;20205;-72
2021/10/20 02:51:29;;;;;;;3.15;2.55;;;12.60;99.90;;;;;;5053668;28;20197;-72
2021/10/20 02:53:56;;;;;;;2.45;2.25;;;12.70;99.90;;;;;;5053689;28;20679;-72
2021/10/20 02:56:23;;;;;;;3.75;2.45;;;12.70;99.90;;;;;;5052577;28;20256;-72
2021/10/20 02:58:50;;;;;;;7.20;2.70;;;12.70;99.90;;;;;;5053647;28;20581;-72
2021/10/20 03:01:17;;;;;;;3.13;2.25;;;12.70;99.90;;;;;;5052988;28;20490;-72
2021/10/20 03:03:45;;;;;;;3.10;2.85;;;12.70;99.90;;;;;;5053619;28;20196;-72
2021/10/20 03:06:14;;;;;;;3.10;2.38;;;12.70;99.90;;;;;;5052920;28;20592;-72
2021/10/20 03:08:40;;;;;;;5.68;2.70;;;12.60;99.90;;;;;;5053725;28;20579;-73
2021/10/20 03:11:07;;;;;;;4.25;2.35;;;12.70;99.90;;;;;;5053359;28;20204;-72
2021/10/20 03:13:34;;;;;;;4.03;3.17;;;12.70;99.90;;;;;;5053684;28;20865;-73
2021/10/20 03:16:00;;;;;;;2.85;2.15;;;12.60;99.90;;;;;;5053553;28;20217;-73
2021/10/20 03:18:27;;;;;;;4.10;3.15;;;12.60;99.90;;;;;;5053449;28;20197;-72
2021/10/20 03:20:54;;;;;;;4.03;2.92;;;12.60;99.90;;;;;;5053421;28;20228;-72
2021/10/20 03:23:22;;;;;;;3.47;2.92;;;12.60;99.90;;;;;;5052909;28;20276;-72
2021/10/20 03:25:49;;;;;;;3.40;3.10;;;12.60;99.90;;;;;;5052821;28;20221;-72
2021/10/20 03:28:16;;;;;;;2.88;2.30;;;12.60;99.90;;;;;;5053086;28;20205;-73
2021/10/20 03:30:43;;;;;;;3.97;2.80;;;12.80;99.90;;;;;;5053304;28;20279;-73
2021/10/20 03:33:09;;;;;;;3.07;2.70;;;12.80;99.90;;;;;;5045316;28;20780;-74
2021/10/20 03:35:36;;;;;;;4.13;2.65;;;12.80;99.90;;;;;;5032147;28;20480;-74
2021/10/20 03:38:05;;;;;;;3.88;3.00;;;12.90;99.90;;;;;;5037054;28;20201;-74
2021/10/20 03:40:34;;;;;;;3.17;2.88;;;12.90;99.90;;;;;;5040950;28;20700;-73
2021/10/20 03:43:00;;;;;;;5.50;2.95;;;12.90;99.90;;;;;;5042116;28;20204;-74
2021/10/20 03:45:27;;;;;;;3.30;2.78;;;12.90;99.90;;;;;;5043686;28;20213;-74
2021/10/20 03:47:54;;;;;;;3.17;2.78;;;12.90;99.90;;;;;;5042024;28;20190;-74
2021/10/20 03:50:21;;;;;;;3.78;2.70;;;12.90;99.90;;;;;;5040788;28;20205;-74
2021/10/20 03:52:47;;;;;;;4.70;2.80;;;12.90;99.90;;;;;;5042897;28;20202;-74
2021/10/20 03:55:14;;;;;;;3.15;2.55;;;12.90;99.90;;;;;;5040854;28;20217;-74
2021/10/20 03:57:43;;;;;;;5.28;2.83;;;12.90;99.90;;;;;;5040224;28;20200;-73
2021/10/20 04:00:12;;;;;;;4.32;2.85;;;12.90;99.90;;;;;;5046214;28;20208;-74
2021/10/20 04:02:42;;;;;;;3.20;2.90;;;12.90;99.90;;;;;;5049176;28;20707;-74
2021/10/20 04:05:09;;;;;;;3.67;2.80;;;12.90;99.90;;;;;;5048267;28;20657;-74
2021/10/20 04:07:39;;;;;;;3.72;2.97;;;12.90;99.90;;;;;;5041322;28;20825;-74
2021/10/20 04:10:07;;;;;;;3.38;2.63;;;12.80;99.90;;;;;;5040246;28;20198;-73
2021/10/20 04:12:34;;;;;;;4.30;2.95;;;12.80;99.90;;;;;;5041111;28;20197;-74
2021/10/20 04:15:02;;;;;;;3.55;2.88;;;12.80;99.90;;;;;;5047624;28;20251;-74
2021/10/20 04:17:28;;;;;;;3.20;2.90;;;12.70;99.90;;;;;;5039771;28;20203;-74
2021/10/20 04:19:55;;;;;;;3.97;2.97;;;12.70;99.90;;;;;;5040741;28;20205;-74
2021/10/20 04:22:22;;;;;;;3.78;2.83;;;12.70;99.90;;;;;;5042852;28;20213;-73
2021/10/20 04:24:49;;;;;;;2.85;2.65;;;12.60;99.90;;;;;;5037645;28;20597;-74
2021/10/20 04:27:16;;;;;;;3.78;2.80;;;12.50;99.90;;;;;;5033467;28;20197;-73
2021/10/20 04:29:42;;;;;;;3.67;2.70;;;12.50;99.90;;;;;;5044404;28;20197;-73
2021/10/20 04:32:11;;;;;;;5.53;2.97;;;12.50;99.90;;;;;;5051431;28;20204;-73
2021/10/20 04:34:38;;;;;;;2.90;2.60;;;12.50;99.90;;;;;;5050604;28;20201;-73
2021/10/20 04:37:04;;;;;;;3.25;2.58;;;12.40;99.90;;;;;;5050993;28;20201;-73
2021/10/20 04:39:31;;;;;;;3.13;2.92;;;12.40;99.90;;;;;;5052059;28;20205;-74
2021/10/20 04:41:58;;;;;;;3.45;2.78;;;12.40;99.90;;;;;;5051896;28;20224;-74
2021/10/20 04:44:24;;;;;;;2.50;2.30;;;12.40;99.90;;;;;;5051319;28;20209;-73
2021/10/20 04:46:51;;;;;;;2.70;2.40;;;12.40;99.90;;;;;;5051303;28;20201;-73
2021/10/20 04:49:19;;;;;;;3.53;3.17;;;12.40;99.90;;;;;;5051488;28;20208;-73
2021/10/20 04:51:46;;;;;;;4.10;3.13;;;12.40;99.90;;;;;;5051796;28;20208;-73
2021/10/20 04:54:13;;;;;;;3.10;2.80;;;12.50;99.90;;;;;;5051408;28;20208;-73
2021/10/20 04:56:40;;;;;;;3.42;3.13;;;12.50;99.90;;;;;;5051092;28;20708;-74
2021/10/20 04:59:06;;;;;;;3.08;2.80;;;12.60;99.90;;;;;;5051465;28;20707;-73
2021/10/20 05:01:33;;;;;;;3.53;2.63;;;12.60;99.90;;;;;;5051138;28;20343;-73
2021/10/20 05:04:00;;;;;;;3.60;3.22;;;12.50;99.90;;;;;;5051403;28;20207;-73
2021/10/20 05:06:28;;;;;;;3.00;2.75;;;12.60;99.90;;;;;;5050716;28;20237;-73
2021/10/20 05:08:55;;;;;;;3.08;2.60;;;12.60;99.90;;;;;;5051525;28;20212;-73
2021/10/20 05:11:21;;;;;;;2.80;2.60;;;12.70;99.90;;;;;;5051109;28;20223;-74
2021/10/20 05:13:48;;;;;;;3.78;2.70;;;12.70;99.90;;;;;;5051880;28;20209;-73
2021/10/20 05:16:15;;;;;;;3.80;3.10;;;12.70;99.90;;;;;;5050549;28;20592;-73
2021/10/20 05:18:41;;;;;;;3.00;2.63;;;12.80;99.90;;;;;;5051240;28;20205;-73
2021/10/20 05:21:08;;;;;;;3.15;2.85;;;12.80;99.90;;;;;;5051089;28;20221;-73
2021/10/20 05:23:36;;;;;;;3.17;2.83;;;12.80;99.90;;;;;;5051006;28;20197;-73
2021/10/20 05:26:03;;;;;;;3.20;2.78;;;12.80;99.90;;;;;;5050477;28;20490;-73
2021/10/20 05:28:29;;;;;;;3.72;3.20;;;12.70;99.90;;;;;;5051098;28;20197;-73
2021/10/20 05:30:56;;;;;;;3.25;2.95;;;12.60;99.90;;;;;;5050912;28;20700;-73
2021/10/20 05:33:23;;;;;;;5.25;2.90;;;12.60;99.90;;;;;;5050869;28;20205;-73
2021/10/20 05:35:49;;;;;;;3.58;2.90;;;12.60;99.90;;;;;;5050360;28;20221;-74
2021/10/20 05:38:16;;;;;;;3.60;3.30;;;12.50;99.90;;;;;;5050811;28;20209;-73
2021/10/20 05:40:44;;;;;;;4.80;3.10;;;12.50;99.90;;;;;;5050848;28;20204;-73
2021/10/20 05:43:11;;;;;;;3.30;3.00;;;12.50;99.90;;;;;;5050660;28;20724;-73
2021/10/20 05:45:38;;;;;;;3.42;2.50;;;12.40;99.90;;;;;;5050520;28;20224;-73
2021/10/20 05:48:05;;;;;;;4.93;2.85;;;12.40;99.90;;;;;;5050444;28;20719;-73
2021/10/20 05:50:32;;;;;;;4.75;3.45;;;12.40;99.90;;;;;;5050732;28;20672;-73
2021/10/20 05:52:59;;;;;;;3.75;3.05;;;12.30;99.90;;;;;;5050786;28;20197;-73
2021/10/20 05:55:26;;;;;;;3.28;2.90;;;12.30;99.90;;;;;;5050423;28;20232;-73
2021/10/20 05:57:54;;;;;;;3.13;2.70;;;12.30;99.90;;;;;;5049722;28;20201;-74
2021/10/20 06:00:21;;;;;;;4.18;2.67;;;12.20;99.90;;;;;;5050377;28;20208;-74
2021/10/20 06:02:47;;;;;;;3.88;3.20;;;12.20;99.90;;;;;;5050314;28;20220;-73
2021/10/20 06:05:14;;;;;;;3.10;2.80;;;12.20;99.90;;;;;;5050294;28;20231;-73
2021/10/20 06:07:42;;;;;;;4.45;3.00;;;12.20;99.90;;;;;;5049907;28;20197;-72
2021/10/20 06:10:10;;;;;;;3.72;3.25;;;12.20;99.90;;;;;;5050255;28;20207;-73
2021/10/20 06:12:36;;;;;;;3.40;2.85;;;12.30;99.90;;;;;;5050395;28;20204;-73
2021/10/20 06:15:06;;;;;;;2.78;2.58;;;12.30;99.90;;;;;;5050241;28;20247;-73
2021/10/20 06:17:33;;;;;;;3.90;2.95;;;12.30;99.90;;;;;;5050060;28;20216;-73
2021/10/20 06:20:00;;;;;;;4.93;3.03;;;12.30;99.90;;;;;;5050248;28;20197;-73
2021/10/20 06:22:26;;;;;;;3.95;2.85;;;12.30;99.90;;;;;;5050492;28;20581;-73
2021/10/20 06:24:53;;;;;;;5.45;2.83;;;12.30;99.90;;;;;;5050343;28;20227;-73
2021/10/20 06:27:20;;;;;;;3.08;2.78;;;12.40;99.90;;;;;;5049909;28;20235;-73
2021/10/20 06:29:47;;;;;;;4.75;3.00;;;12.50;99.90;;;;;;5050194;28;20211;-73
2021/10/20 06:32:15;;;;;;;3.45;2.85;;;12.50;99.90;;;;;;5049411;28;20208;-73
2021/10/20 06:34:42;;;;;;;3.33;2.60;;;12.50;99.90;;;;;;5043408;28;20209;-73
2021/10/20 06:37:09;;;;;;;3.33;2.90;;;12.60;99.90;;;;;;5040564;28;20459;-73
2021/10/20 06:39:35;;;;;;;3.10;2.80;;;12.70;99.90;;;;;;5039262;28;20197;-73
2021/10/20 06:42:02;;;;;;;3.28;2.80;;;12.70;99.90;;;;;;5043523;28;20713;-72
2021/10/20 06:44:29;;;;;;;3.10;2.63;;;12.80;99.90;;;;;;5039385;28;20697;-73
2021/10/20 06:46:56;;;;;;;3.05;2.50;;;12.80;99.90;;;;;;5043617;28;20668;-73
2021/10/20 06:49:24;;;;;;;3.08;2.78;;;12.90;99.90;;;;;;5050307;28;20259;-73
2021/10/20 06:51:51;;;;;;;3.70;3.40;;;12.90;99.90;;;;;;5050380;28;20203;-73
2021/10/20 06:54:20;;;;;;;4.13;3.20;;;12.90;99.90;;;;;;5050625;28;20209;-73
2021/10/20 06:56:47;;;;;;;3.20;2.90;;;12.90;99.90;;;;;;5050169;28;20482;-73
2021/10/20 06:59:14;;;;;;;3.65;3.10;;;12.90;99.90;;;;;;5050073;28;20197;-73
2021/10/20 07:01:41;;;;;;;2.90;2.60;;;13.00;99.90;;;;;;5120974;22;20240;-70
2021/10/20 07:04:19;;;;;;;4.07;3.10;;;13.20;99.90;;;;;;5050332;28;20201;-70
2021/10/20 07:06:50;;;;;;;3.00;2.70;;;13.50;99.90;;;;;;5049998;28;20566;-70
2021/10/20 07:09:17;;;;;;;3.23;2.93;;;13.90;99.90;;;;;;5051877;28;20459;-69
2021/10/20 07:11:43;;;;;;;3.27;2.80;;;14.20;99.90;;;;;;5053928;28;20455;-70
2021/10/20 07:14:10;;;;;;;4.17;2.63;;;14.60;99.90;;;;;;5054033;28;20455;-70
2021/10/20 07:16:38;;;;;;;3.30;2.87;;;14.90;99.90;;;;;;5053130;28;20601;-70
2021/10/20 07:19:06;;;;;;;3.00;2.80;;;15.30;99.90;;;;;;5053974;28;20978;-70
2021/10/20 07:21:33;;;;;;;3.63;3.17;;;15.50;99.90;;;;;;5052832;28;20460;-70
2021/10/20 07:24:01;;;;;;;5.33;2.70;;;15.80;99.90;;;;;;5052992;28;20461;-70
2021/10/20 07:26:28;;;;;;;3.83;2.57;;;15.90;99.90;;;;;;5052959;28;20509;-70
2021/10/20 07:28:55;;;;;;;3.80;3.40;;;16.10;99.90;;;;;;5053622;28;20880;-70
2021/10/20 07:31:21;;;;;;;4.80;2.90;;;16.20;99.90;;;;;;5049778;28;20459;-70
2021/10/20 07:33:48;;;;;;;3.40;3.10;;;16.30;99.90;;;;;;5050547;28;20459;-70
2021/10/20 07:36:18;;;;;;;4.40;3.10;;;16.40;99.90;;;;;;5052115;28;21067;-70
2021/10/20 07:38:45;;;;;;;3.43;3.13;;;16.60;99.90;;;;;;5053270;28;20465;-70
2021/10/20 07:41:13;;;;;;;3.40;3.03;;;16.60;99.90;;;;;;5053006;28;20558;-70
2021/10/20 07:43:40;;;;;;;3.33;2.90;;;16.50;99.90;;;;;;5052558;28;20589;-70
2021/10/20 07:46:07;;;;;;;4.73;2.80;;;16.60;99.90;;;;;;5052973;28;20490;-70
2021/10/20 07:48:35;;;;;;;4.13;2.80;;;16.60;99.90;;;;;;5053137;28;20521;-70
2021/10/20 07:51:02;;;;;;;3.23;2.93;;;16.80;99.90;;;;;;5052664;28;20543;-70
2021/10/20 07:53:29;;;;;;;5.50;3.00;;;17.00;99.90;;;;;;5052565;28;20483;-70
2021/10/20 07:55:55;;;;;;;3.17;2.87;;;17.20;99.90;;;;;;5051946;28;20487;-70
2021/10/20 07:58:23;;;;;;;2.97;2.67;;;16.90;99.90;;;;;;5052836;28;20463;-70
2021/10/20 08:00:50;;;;;;;4.57;3.30;;;16.70;99.90;;;;;;5049382;28;20863;-70
2021/10/20 08:03:17;;;;;;;2.83;2.63;;;16.60;99.90;;;;;;5051672;28;20464;-70
2021/10/20 08:05:44;;;;;;;3.10;2.80;;;16.70;99.90;;;;;;5051501;28;21021;-70
2021/10/20 08:08:10;;;;;;;2.93;2.50;;;16.90;99.90;;;;;;5051416;28;20466;-70
2021/10/20 08:10:40;;;;;;;2.73;2.53;;;17.10;99.90;;;;;;5051655;28;20465;-70
2021/10/20 08:13:07;;;;;;;5.00;3.27;;;17.30;99.90;;;;;;5051539;28;20494;-70
2021/10/20 08:15:35;;;;;;;3.17;2.87;;;17.40;99.90;;;;;;5051646;28;20479;-70
2021/10/20 08:18:03;;;;;;;3.50;3.00;;;17.60;99.90;;;;;;5051575;28;20459;-70
2021/10/20 08:20:32;;;;;;;3.37;3.07;;;17.60;99.90;;;;;;5050948;28;20470;-70
2021/10/20 08:23:00;;;;;;;3.30;2.80;;;17.60;99.90;;;;;;5051642;28;20458;-70
2021/10/20 08:25:26;;;;;;;4.47;2.87;;;18.00;99.90;;;;;;5051023;28;20486;-70
2021/10/20 08:27:54;;;;;;;4.20;3.20;;;18.00;99.90;;;;;;5051273;28;20466;-70
2021/10/20 08:30:20;;;;;;;3.53;3.23;;;18.10;99.90;;;;;;5051813;28;20462;-70
2021/10/20 08:32:52;;;;;;;4.27;2.70;;;18.20;99.90;;;;;;5051318;28;20494;-70
2021/10/20 08:35:19;;;;;;;5.53;2.97;;;18.20;99.90;;;;;;5051782;28;20479;-70
2021/10/20 08:37:47;;;;;;;4.50;3.07;;;18.10;99.90;;;;;;5051741;28;20466;-70
2021/10/20 08:40:14;;;;;;;3.43;2.67;;;18.20;99.90;;;;;;5049116;28;20474;-70
2021/10/20 08:42:42;;;;;;;3.87;2.57;;;18.20;99.90;;;;;;5051411;28;20463;-70
2021/10/20 08:45:10;;;;;;;3.80;2.90;;;18.30;99.90;;;;;;5050788;28;20525;-70
2021/10/20 08:47:38;;;;;;;2.93;2.33;;;18.20;99.90;;;;;;5050520;28;20459;-69
2021/10/20 08:50:09;;;;;;;3.00;2.77;;;18.00;99.90;;;;;;5050757;28;20842;-69
2021/10/20 08:52:36;;;;;;;2.73;2.50;;;17.80;99.90;;;;;;5051313;28;20843;-69
2021/10/20 08:55:04;;;;;;;3.53;2.90;;;18.00;99.90;;;;;;5050051;28;20490;-69
2021/10/20 08:57:30;;;;;;;2.93;2.63;;;18.20;99.90;;;;;;5050122;28;20463;-70
2021/10/20 09:00:01;;;;;;;3.60;2.67;;;18.30;99.90;;;;;;5050698;28;20463;-69
2021/10/20 09:02:27;;;;;;;3.33;3.03;;;18.30;99.90;;;;;;5050802;28;20467;-69
2021/10/20 09:04:54;;;;;;;4.33;2.50;;;18.20;99.90;;;;;;5050058;28;20486;-69
2021/10/20 09:07:22;;;;;;;5.90;3.20;;;18.20;99.90;;;;;;5049961;28;20467;-69
2021/10/20 09:09:53;;;;;;;3.13;2.50;;;18.40;99.90;;;;;;5050825;28;20474;-69
2021/10/20 09:12:26;;;;;;;5.27;2.60;;;18.40;99.90;;;;;;5050079;28;20522;-69
2021/10/20 09:14:56;;;;;;;2.93;2.70;;;18.30;99.90;;;;;;5049960;28;20986;-69
2021/10/20 09:17:23;;;;;;;3.60;2.77;;;18.40;99.90;;;;;;5049244;28;20834;-69
2021/10/20 09:19:50;;;;;;;3.20;2.97;;;18.50;99.90;;;;;;5049886;28;20459;-69
2021/10/20 09:22:17;;;;;;;3.20;2.50;;;18.60;99.90;;;;;;5050168;28;20826;-69
2021/10/20 09:24:46;;;;;;;3.40;3.00;;;18.60;99.90;;;;;;5048776;28;20490;-69
2021/10/20 09:27:20;;;;;;;3.00;2.77;;;18.60;99.90;;;;;;5049537;28;20470;-69
2021/10/20 09:29:46;;;;;;;3.23;2.80;;;18.40;99.90;;;;;;5049515;28;20466;-69
2021/10/20 09:32:13;;;;;;;4.40;3.00;;;18.20;99.90;;;;;;5049196;28;20467;-69
2021/10/20 09:34:41;;;;;;;3.27;2.97;;;18.10;99.90;;;;;;5049007;28;20463;-69
2021/10/20 09:37:08;;;;;;;3.10;2.40;;;18.00;99.90;;;;;;5049397;28;20462;-69
2021/10/20 09:39:37;;;;;;;2.90;2.23;;;18.00;99.90;;;;;;5049856;28;20467;-69
2021/10/20 09:42:09;;;;;;;2.80;2.60;;;18.20;99.90;;;;;;5049667;28;20463;-69
2021/10/20 09:44:47;;;;;;;2.87;2.67;;;18.60;99.90;;;;;;5049388;28;20466;-69
2021/10/20 09:47:14;;;;;;;2.80;2.30;;;19.10;99.90;;;;;;5049135;28;20505;-69
2021/10/20 09:49:48;;;;;;;4.27;2.50;;;19.30;99.90;;;;;;5049577;28;20898;-69
2021/10/20 09:52:18;;;;;;;2.73;2.53;;;19.10;99.90;;;;;;5049590;28;20442;-69
2021/10/20 09:54:45;;;;;;;4.13;3.00;;;18.90;99.90;;;;;;5049172;28;20486;-69
2021/10/20 09:57:14;;;;;;;2.60;2.40;;;19.00;99.90;;;;;;5049382;28;20838;-69
2021/10/20 09:59:42;;;;;;;3.63;2.67;;;19.40;99.90;;;;;;5049137;28;20463;-69
2021/10/20 10:02:10;;;;;;;3.70;2.70;;;19.80;99.90;;;;;;5049798;28;20471;-70
2021/10/20 10:04:37;;;;;;;3.70;2.60;;;20.10;99.90;;;;;;5049095;28;20497;-67
2021/10/20 10:07:05;;;;;;;2.60;2.40;;;20.30;99.90;;;;;;5049076;28;20459;-70
2021/10/20 10:09:32;;;;;;;3.53;2.83;;;20.30;99.90;;;;;;5049442;28;20455;-70
2021/10/20 10:12:04;;;;;;;2.63;2.43;;;20.50;99.90;;;;;;5049679;28;20954;-69
2021/10/20 10:14:38;;;;;;;2.67;2.47;;;20.60;99.90;;;;;;5049225;28;20483;-69
2021/10/20 10:17:06;;;;;;;4.77;2.93;;;20.60;99.90;;;;;;5048954;28;20463;-69
2021/10/20 10:19:38;;;;;;;4.10;2.87;;;20.60;99.90;;;;;;5049497;28;20463;-69
2021/10/20 10:22:21;;;;;;;3.80;2.87;;;20.50;99.90;;;;;;5049289;28;20833;-69
2021/10/20 10:24:48;;;;;;;2.80;2.60;;;20.50;99.90;;;;;;5048883;28;20491;-70
2021/10/20 10:27:15;;;;;;;3.20;2.70;;;20.70;99.90;;;;;;5048836;28;20834;-69
2021/10/20 10:29:50;;;;;;;3.00;2.70;;;20.90;99.90;;;;;;5049543;28;20464;-69
2021/10/20 10:32:20;;;;;;;4.83;2.70;;;20.80;99.90;;;;;;5050379;28;20477;-70
2021/10/20 10:34:48;;;;;;;3.13;2.70;;;20.90;99.90;;;;;;5049661;28;20475;-69
2021/10/20 10:37:25;;;;;;;3.33;2.80;;;20.90;99.90;;;;;;5046477;28;20463;-69
2021/10/20 10:39:53;;;;;;;3.77;2.90;;;20.90;99.90;;;;;;5049593;28;20467;-69
2021/10/20 10:42:30;;;;;;;2.50;2.30;;;20.80;99.90;;;;;;5050320;28;20463;-69
2021/10/20 10:45:10;;;;;;;2.40;2.20;;;20.60;99.90;;;;;;5053328;28;20485;-69
2021/10/20 10:47:55;;;;;;;2.80;2.43;;;20.50;99.90;;;;;;5053422;28;20463;-69
2021/10/20 10:50:37;;;;;;;3.23;2.50;;;20.60;99.90;;;;;;5052926;28;20459;-69
2021/10/20 10:53:04;;;;;;;3.20;2.90;;;20.60;99.90;;;;;;5053451;28;20562;-69
2021/10/20 10:55:32;;;;;;;2.70;2.40;;;20.90;99.90;;;;;;5052478;28;20479;-69
2021/10/20 10:58:00;;;;;;;5.50;2.40;;;21.40;99.90;;;;;;5052402;28;20459;-69
2021/10/20 11:00:32;;;;;;;3.20;2.90;;;22.10;99.90;;;;;;5052807;28;20521;-69
2021/10/20 11:03:13;;;;;;;3.13;2.73;;;22.30;99.90;;;;;;5052735;28;20467;-70
2021/10/20 11:05:47;;;;;;;2.60;2.40;;;22.30;99.90;;;;;;5052246;28;20483;-70
2021/10/20 11:08:14;;;;;;;2.97;2.77;;;22.40;99.90;;;;;;5052625;28;20463;-69
2021/10/20 11:10:42;;;;;;;4.30;2.93;;;22.70;99.90;;;;;;5052632;28;20913;-69
2021/10/20 11:13:12;;;;;;;3.30;2.57;;;22.70;99.90;;;;;;5052890;28;20566;-68
2021/10/20 11:15:41;;;;;;;2.90;2.43;;;22.30;99.90;;;;;;5051816;28;20918;-68
2021/10/20 11:18:08;;;;;;;2.13;1.93;;;22.10;99.90;;;;;;5052958;28;20494;-68
2021/10/20 11:20:36;;;;;;;3.70;2.40;;;22.00;99.90;;;;;;5052014;28;20455;-68
2021/10/20 11:23:05;;;;;;;3.10;2.73;;;22.40;99.90;;;;;;5052503;28;20455;-68
2021/10/20 11:25:33;;;;;;;4.13;2.73;;;23.00;99.90;;;;;;5051736;28;20487;-68
2021/10/20 11:28:00;;;;;;;2.70;2.20;;;23.40;99.90;;;;;;5052243;28;20460;-68
2021/10/20 11:30:30;;;;;;;3.73;2.10;;;23.80;99.90;;;;;;5052182;28;20462;-68
2021/10/20 11:33:01;;;;;;;3.13;2.60;;;24.20;99.90;;;;;;5052117;28;20468;-68
2021/10/20 11:35:30;;;;;;;5.17;2.93;;;24.30;99.90;;;;;;5051676;28;20483;-68
2021/10/20 11:38:01;;;;;;;2.33;2.10;;;24.50;99.90;;;;;;5051470;28;20467;-68
2021/10/20 11:40:31;;;;;;;2.97;2.30;;;24.80;99.90;;;;;;5051875;28;20516;-68
2021/10/20 11:42:58;;;;;;;2.53;2.23;;;25.40;99.90;;;;;;5052055;28;20462;-68
2021/10/20 11:45:31;;;;;;;2.53;2.33;;;26.00;99.90;;;;;;5051430;28;20488;-68
2021/10/20 11:48:03;;;;;;;2.40;2.27;;;26.20;99.60;;;;;;5051806;28;20463;-68
2021/10/20 11:50:31;;;;;;;3.50;2.50;;;26.40;99.70;;;;;;5051934;28;20455;-68
2021/10/20 11:53:00;;;;;;;3.07;2.47;;;26.40;99.20;;;;;;5051911;28;20456;-68
2021/10/20 11:55:27;;;;;;;2.70;2.50;;;26.20;99.40;;;;;;5049978;28;20490;-68
2021/10/20 11:57:55;;;;;;;2.93;2.20;;;25.80;98.90;;;;;;5051448;28;20467;-68
2021/10/20 12:00:23;;;;;;;2.70;2.50;;;25.20;99.40;;;;;;5051391;28;20923;-68
2021/10/20 12:02:50;;;;;;;6.43;2.53;;;24.70;99.90;;;;;;5051717;28;20474;-68
2021/10/20 12:05:18;;;;;;;2.50;2.23;;;23.80;99.90;;;;;;5051443;28;20483;-68
2021/10/20 12:07:47;;;;;;;2.33;2.13;;;23.00;99.90;;;;;;5050617;28;20463;-69
2021/10/20 12:10:16;;;;;;;3.20;2.90;;;22.40;99.90;;;;;;5051650;28;20841;-69
2021/10/20 12:12:43;;;;;;;3.93;2.63;;;22.00;99.90;;;;;;5051163;28;20464;-69
2021/10/20 12:15:17;;;;;;;3.67;3.03;;;21.80;99.90;;;;;;5051276;28;20492;-69
2021/10/20 12:17:46;;;;;;;2.97;2.60;;;21.60;99.90;;;;;;5051137;28;20942;-69
2021/10/20 12:20:15;;;;;;;3.00;2.40;;;21.50;99.90;;;;;;5051410;28;20955;-69
2021/10/20 12:22:43;;;;;;;3.40;2.83;;;21.60;99.90;;;;;;5052121;28;20499;-70
2021/10/20 12:25:10;;;;;;;3.90;2.53;;;22.20;99.90;;;;;;5051837;28;20483;-70
2021/10/20 12:27:40;;;;;;;3.00;2.70;;;22.90;99.90;;;;;;5051190;28;20502;-69
2021/10/20 12:30:09;;;;;;;2.93;2.40;;;23.20;99.90;;;;;;5051649;28;20834;-70
2021/10/20 12:32:39;;;;;;;5.30;2.57;;;23.10;99.90;;;;;;5052197;28;20930;-70
2021/10/20 12:35:10;;;;;;;3.10;2.57;;;22.90;99.90;;;;;;5052257;28;20495;-70
2021/10/20 12:37:39;;;;;;;2.83;2.43;;;22.80;99.90;;;;;;5051494;28;20455;-70
2021/10/20 12:40:14;;;;;;;2.80;2.23;;;22.70;99.90;;;;;;5052350;28;20466;-70
2021/10/20 12:42:46;;;;;;;2.77;2.40;;;22.40;99.90;;;;;;5051698;28;20463;-69
2021/10/20 12:45:14;;;;;;;2.80;2.60;;;22.00;99.90;;;;;;5052170;28;20586;-69
2021/10/20 12:47:43;;;;;;;2.60;2.40;;;21.70;99.90;;;;;;5051345;28;20467;-69
2021/10/20 12:50:11;;;;;;;2.53;2.30;;;21.40;99.90;;;;;;5052537;28;20463;-69
2021/10/20 12:52:39;;;;;;;2.93;2.73;;;21.10;99.90;;;;;;5052304;28;20563;-69
2021/10/20 12:55:08;;;;;;;5.30;2.40;;;21.00;99.90;;;;;;5052620;28;20487;-69